createdAt,value
2019-05-03T00:00:09.441Z,96.84
2019-05-03T00:01:09.471Z,96.94
2019-05-03T00:02:09.427Z,97.03
2019-05-03T00:03:09.424Z,96.66
2019-05-03T00:04:09.483Z,96.46
2019-05-03T00:05:09.481Z,96.66
2019-05-03T00:06:09.412Z,97.18
2019-05-03T00:07:09.416Z,98.71
2019-05-03T00:08:09.406Z,97.85
2019-05-03T00:09:09.451Z,97.75
2019-05-03T00:10:09.447Z,98.04
2019-05-03T00:11:09.388Z,97.85
2019-05-03T00:12:09.386Z,97.89
2019-05-03T00:13:09.379Z,97.80
2019-05-03T00:14:09.388Z,97.99
2019-05-03T00:15:09.375Z,98.04
2019-05-03T00:16:09.662Z,97.80
2019-05-03T00:17:09.409Z,97.56
2019-05-03T00:18:09.362Z,97.80
2019-05-03T00:19:09.356Z,97.89
2019-05-03T00:20:09.351Z,97.94
2019-05-03T00:21:09.364Z,97.80
2019-05-03T00:22:09.345Z,97.99
2019-05-03T00:23:09.379Z,98.66
2019-05-03T00:24:09.335Z,98.18
2019-05-03T00:25:09.373Z,97.71
2019-05-03T00:26:09.331Z,97.89
2019-05-03T00:27:09.321Z,97.89
2019-05-03T00:28:09.369Z,97.99
2019-05-03T00:29:09.361Z,97.99
2019-05-03T00:30:09.325Z,97.42
2019-05-03T00:31:09.311Z,97.71
2019-05-03T00:32:09.300Z,97.52
2019-05-03T00:33:09.290Z,97.80
2019-05-03T00:34:09.290Z,98.18
2019-05-03T00:35:09.285Z,98.08
2019-05-03T00:36:09.281Z,98.18
2019-05-03T00:37:09.272Z,98.57
2019-05-03T00:38:09.296Z,98.08
2019-05-03T00:39:09.268Z,98.71
2019-05-03T00:40:09.264Z,99.09
2019-05-03T00:41:09.259Z,98.28
2019-05-03T00:42:09.274Z,98.80
2019-05-03T00:43:09.252Z,98.90
2019-05-03T00:44:09.307Z,99.19
2019-05-03T00:45:09.340Z,99.38
2019-05-03T00:46:09.254Z,99.38
2019-05-03T00:47:09.232Z,99.09
2019-05-03T00:48:09.247Z,99.38
2019-05-03T00:49:09.230Z,98.80
2019-05-03T00:50:09.226Z,99.38
2019-05-03T00:51:09.221Z,99.28
2019-05-03T00:52:09.219Z,99.38
2019-05-03T00:53:09.218Z,99.38
2019-05-03T00:54:09.243Z,99.38
2019-05-03T00:55:16.057Z,99.28
2019-05-03T00:56:09.193Z,99.38
2019-05-03T00:57:09.186Z,99.38
2019-05-03T00:58:09.186Z,99.57
2019-05-03T00:59:09.190Z,99.66
2019-05-03T01:00:09.181Z,99.28
2019-05-03T01:01:09.186Z,99.95
2019-05-03T01:02:09.168Z,99.38
2019-05-03T01:03:09.163Z,99.85
2019-05-03T01:04:09.375Z,99.99
2019-05-03T01:05:09.155Z,99.99
2019-05-03T01:06:09.187Z,99.99
2019-05-03T01:07:09.148Z,99.99
2019-05-03T01:08:09.145Z,99.99
2019-05-03T01:09:09.138Z,99.99
2019-05-03T01:10:09.147Z,99.99
2019-05-03T01:11:09.133Z,99.99
2019-05-03T01:12:09.128Z,99.99
2019-05-03T01:13:09.120Z,99.99
2019-05-03T01:14:09.116Z,99.99
2019-05-03T01:15:09.114Z,99.99
2019-05-03T01:16:09.110Z,99.99
2019-05-03T01:17:09.104Z,99.99
2019-05-03T01:18:09.101Z,99.99
2019-05-03T01:19:09.098Z,99.99
2019-05-03T01:20:09.093Z,99.99
2019-05-03T01:21:09.090Z,99.99
2019-05-03T01:22:09.084Z,99.99
2019-05-03T01:23:09.079Z,99.99
2019-05-03T01:24:09.079Z,99.99
2019-05-03T01:25:09.075Z,99.99
2019-05-03T01:26:09.066Z,99.99
2019-05-03T01:27:09.062Z,99.99
2019-05-03T01:28:09.069Z,99.99
2019-05-03T01:29:09.064Z,99.99
2019-05-03T01:30:09.054Z,99.99
2019-05-03T01:31:09.044Z,99.99
2019-05-03T01:32:09.040Z,99.99
2019-05-03T01:33:09.038Z,99.99
2019-05-03T01:34:09.037Z,99.99
2019-05-03T01:35:09.029Z,99.99
2019-05-03T01:36:09.026Z,99.99
2019-05-03T01:37:09.018Z,99.99
2019-05-03T01:38:09.016Z,99.99
2019-05-03T01:39:09.013Z,99.99
2019-05-03T01:40:09.005Z,99.99
2019-05-03T01:41:09.002Z,99.99
2019-05-03T01:42:08.998Z,99.99
2019-05-03T01:43:09.274Z,99.99
2019-05-03T01:44:08.995Z,99.99
2019-05-03T01:45:08.982Z,99.99
2019-05-03T01:46:08.979Z,99.99
2019-05-03T01:47:11.536Z,99.99
2019-05-03T01:48:09.060Z,99.99
2019-05-03T01:49:09.879Z,99.99
2019-05-03T01:50:09.008Z,99.99
2019-05-03T01:51:09.010Z,99.23
2019-05-03T01:52:08.955Z,99.99
2019-05-03T01:53:08.963Z,99.71
2019-05-03T01:54:08.946Z,99.90
2019-05-03T01:55:13.158Z,98.85
2019-05-03T01:56:08.947Z,99.62
2019-05-03T01:57:09.224Z,99.57
2019-05-03T01:58:08.930Z,98.52
2019-05-03T01:59:08.923Z,97.89
2019-05-03T02:00:08.939Z,98.47
2019-05-03T02:01:08.972Z,98.71
2019-05-03T02:02:08.911Z,99.09
2019-05-03T02:03:08.908Z,99.38
2019-05-03T02:04:08.911Z,99.52
2019-05-03T02:05:08.902Z,99.99
2019-05-03T02:06:08.895Z,99.33
2019-05-03T02:07:08.890Z,99.71
2019-05-03T02:08:09.009Z,98.66
2019-05-03T02:09:08.894Z,98.85
2019-05-03T02:10:08.880Z,98.75
2019-05-03T02:11:08.871Z,99.23
2019-05-03T02:12:08.871Z,99.33
2019-05-03T02:13:08.864Z,99.90
2019-05-03T02:14:08.861Z,99.71
2019-05-03T02:15:08.859Z,99.33
2019-05-03T02:16:08.853Z,99.04
2019-05-03T02:17:08.843Z,99.23
2019-05-03T02:18:08.842Z,99.71
2019-05-03T02:19:08.843Z,99.33
2019-05-03T02:20:08.830Z,99.14
2019-05-03T02:21:08.853Z,99.71
2019-05-03T02:22:08.823Z,99.33
2019-05-03T02:23:08.816Z,98.85
2019-05-03T02:24:08.821Z,98.85
2019-05-03T02:25:08.915Z,98.47
2019-05-03T02:26:08.887Z,98.94
2019-05-03T02:27:08.799Z,98.75
2019-05-03T02:28:09.447Z,99.04
2019-05-03T02:29:08.790Z,99.04
2019-05-03T02:30:08.831Z,99.33
2019-05-03T02:31:08.879Z,99.52
2019-05-03T02:32:08.778Z,98.47
2019-05-03T02:33:09.877Z,99.71
2019-05-03T02:34:08.767Z,98.94
2019-05-03T02:35:08.763Z,99.62
2019-05-03T02:36:08.775Z,98.94
2019-05-03T02:37:08.753Z,99.52
2019-05-03T02:38:08.759Z,98.66
2019-05-03T02:39:08.747Z,99.43
2019-05-03T02:40:08.744Z,98.57
2019-05-03T02:41:13.196Z,99.33
2019-05-03T02:42:11.617Z,99.19
2019-05-03T02:43:08.731Z,99.38
2019-05-03T02:44:08.740Z,99.04
2019-05-03T02:45:08.733Z,99.71
2019-05-03T02:46:08.732Z,99.52
2019-05-03T02:47:08.716Z,98.18
2019-05-03T02:48:08.711Z,97.80
2019-05-03T02:49:08.905Z,97.89
2019-05-03T02:50:08.753Z,97.42
2019-05-03T02:51:08.693Z,95.70
2019-05-03T02:52:09.461Z,94.65
2019-05-03T02:53:09.385Z,93.31
2019-05-03T02:54:08.693Z,93.31
2019-05-03T02:55:08.678Z,90.97
2019-05-03T02:56:18.217Z,93.36
2019-05-03T02:57:08.666Z,92.50
2019-05-03T02:58:08.674Z,92.21
2019-05-03T02:59:08.816Z,93.84
2019-05-03T03:00:08.656Z,92.97
2019-05-03T03:01:08.698Z,91.07
2019-05-03T03:02:08.641Z,94.07
2019-05-03T03:03:08.698Z,92.55
2019-05-03T03:04:08.639Z,91.69
2019-05-03T03:05:08.628Z,89.07
2019-05-03T03:06:08.624Z,86.40
2019-05-03T03:07:08.619Z,84.40
2019-05-03T03:08:08.612Z,83.16
2019-05-03T03:09:08.607Z,83.69
2019-05-03T03:10:08.604Z,83.59
2019-05-03T03:11:08.602Z,82.64
2019-05-03T03:12:08.588Z,80.35
2019-05-03T03:13:08.591Z,78.64
2019-05-03T03:14:08.590Z,78.16
2019-05-03T03:15:08.615Z,77.78
2019-05-03T03:16:08.573Z,77.97
2019-05-03T03:17:08.561Z,77.49
2019-05-03T03:18:36.735Z,78.92
2019-05-03T03:19:08.548Z,79.02
2019-05-03T03:20:08.543Z,78.54
2019-05-03T03:21:08.582Z,80.73
2019-05-03T03:22:08.531Z,80.35
2019-05-03T03:23:08.567Z,79.68
2019-05-03T03:24:08.517Z,79.49
2019-05-03T03:25:08.510Z,82.92
2019-05-03T03:26:08.504Z,83.40
2019-05-03T03:27:08.499Z,82.26
2019-05-03T03:28:08.493Z,82.54
2019-05-03T03:29:08.486Z,81.88
2019-05-03T03:30:08.805Z,82.45
2019-05-03T03:31:08.864Z,83.12
2019-05-03T03:32:09.798Z,82.92
2019-05-03T03:33:09.343Z,83.21
2019-05-03T03:34:08.780Z,81.88
2019-05-03T03:35:12.049Z,81.49
2019-05-03T03:36:42.175Z,81.59
2019-05-03T03:37:10.336Z,81.21
2019-05-03T03:38:08.436Z,82.17
2019-05-03T03:39:08.472Z,82.45
2019-05-03T03:40:08.475Z,82.45
2019-05-03T03:41:08.415Z,81.97
2019-05-03T03:42:08.406Z,82.35
2019-05-03T03:43:08.402Z,82.45
2019-05-03T03:44:08.432Z,81.88
2019-05-03T03:45:08.393Z,81.68
2019-05-03T03:46:08.383Z,81.88
2019-05-03T03:47:08.383Z,81.88
2019-05-03T03:48:08.373Z,82.26
2019-05-03T03:49:09.392Z,82.73
2019-05-03T03:50:08.358Z,83.21
2019-05-03T03:51:08.362Z,82.92
2019-05-03T03:52:08.349Z,82.92
2019-05-03T03:53:08.342Z,83.88
2019-05-03T03:54:08.335Z,82.45
2019-05-03T03:55:08.339Z,82.07
2019-05-03T03:56:08.604Z,80.44
2019-05-03T03:57:08.603Z,79.88
2019-05-03T03:58:08.309Z,79.59
2019-05-03T03:59:08.498Z,79.30
2019-05-03T04:00:08.304Z,80.35
2019-05-03T04:01:08.592Z,79.21
2019-05-03T04:02:08.298Z,79.11
2019-05-03T04:03:08.281Z,78.73
2019-05-03T04:04:08.397Z,79.59
2019-05-03T04:05:08.266Z,80.07
2019-05-03T04:06:08.573Z,80.07
2019-05-03T04:07:08.258Z,80.26
2019-05-03T04:08:09.071Z,79.68
2019-05-03T04:09:08.496Z,79.88
2019-05-03T04:10:08.494Z,80.44
2019-05-03T04:11:08.237Z,81.97
2019-05-03T04:12:08.225Z,84.07
2019-05-03T04:13:08.225Z,85.21
2019-05-03T04:14:09.056Z,84.07
2019-05-03T04:15:08.203Z,83.78
2019-05-03T04:16:08.194Z,84.26
2019-05-03T04:17:08.190Z,86.07
2019-05-03T04:18:08.351Z,85.97
2019-05-03T04:19:08.193Z,86.83
2019-05-03T04:20:08.183Z,86.83
2019-05-03T04:21:08.167Z,86.26
2019-05-03T04:22:08.163Z,86.07
2019-05-03T04:23:08.172Z,85.12
2019-05-03T04:24:08.150Z,86.07
2019-05-03T04:25:08.330Z,86.93
2019-05-03T04:26:08.155Z,86.93
2019-05-03T04:27:18.437Z,86.93
2019-05-03T04:28:08.126Z,87.21
2019-05-03T04:29:08.120Z,86.74
2019-05-03T04:30:08.111Z,87.12
2019-05-03T04:31:08.113Z,87.12
2019-05-03T04:32:08.156Z,88.17
2019-05-03T04:33:08.094Z,89.89
2019-05-03T04:34:08.085Z,92.27
2019-05-03T04:35:08.085Z,90.64
2019-05-03T04:36:08.077Z,90.84
2019-05-03T04:37:08.078Z,91.13
2019-05-03T04:38:08.075Z,91.60
2019-05-03T04:39:08.077Z,90.84
2019-05-03T04:40:08.055Z,90.22
2019-05-03T04:41:08.043Z,89.83
2019-05-03T04:42:08.070Z,88.93
2019-05-03T04:43:08.035Z,90.50
2019-05-03T04:44:08.046Z,90.69
2019-05-03T04:45:08.026Z,92.22
2019-05-03T04:46:08.016Z,93.08
2019-05-03T04:47:08.014Z,94.12
2019-05-03T04:48:08.005Z,93.84
2019-05-03T04:49:07.999Z,95.17
2019-05-03T04:50:07.994Z,94.70
2019-05-03T04:51:08.015Z,95.46
2019-05-03T04:52:07.982Z,94.89
2019-05-03T04:53:07.972Z,94.98
2019-05-03T04:54:07.968Z,95.37
2019-05-03T04:55:07.965Z,95.37
2019-05-03T04:56:07.963Z,97.56
2019-05-03T04:57:07.977Z,97.27
2019-05-03T04:58:07.962Z,98.08
2019-05-03T04:59:07.941Z,97.99
2019-05-03T05:00:11.248Z,97.51
2019-05-03T05:01:07.933Z,95.89
2019-05-03T05:02:07.926Z,95.98
2019-05-03T05:03:07.935Z,96.08
2019-05-03T05:04:07.919Z,95.79
2019-05-03T05:05:07.914Z,96.36
2019-05-03T05:06:07.902Z,95.03
2019-05-03T05:07:07.894Z,97.70
2019-05-03T05:08:07.886Z,97.51
2019-05-03T05:09:07.884Z,98.46
2019-05-03T05:10:07.878Z,98.75
2019-05-03T05:11:10.447Z,99.99
2019-05-03T05:12:07.869Z,99.99
2019-05-03T05:13:07.854Z,99.99
2019-05-03T05:14:07.849Z,99.99
2019-05-03T05:15:07.843Z,99.99
2019-05-03T05:16:07.836Z,99.99
2019-05-03T05:17:07.833Z,99.99
2019-05-03T05:18:07.866Z,99.99
2019-05-03T05:19:07.821Z,99.99
2019-05-03T05:20:07.812Z,99.99
2019-05-03T05:21:07.810Z,99.99
2019-05-03T05:22:07.799Z,99.99
2019-05-03T05:23:07.793Z,99.99
2019-05-03T05:24:07.787Z,99.99
2019-05-03T05:25:07.779Z,99.99
2019-05-03T05:26:07.775Z,99.99
2019-05-03T05:27:07.767Z,99.99
2019-05-03T05:28:07.796Z,99.99
2019-05-03T05:29:07.758Z,99.99
2019-05-03T05:30:07.756Z,99.99
2019-05-03T05:31:07.741Z,99.99
2019-05-03T05:32:07.741Z,99.99
2019-05-03T05:33:07.730Z,99.99
2019-05-03T05:34:08.829Z,99.99
2019-05-03T05:35:07.716Z,99.99
2019-05-03T05:36:07.712Z,99.99
2019-05-03T05:37:07.714Z,99.99
2019-05-03T05:38:07.699Z,99.99
2019-05-03T05:39:07.694Z,99.99
2019-05-03T05:40:07.690Z,99.99
2019-05-03T05:41:07.764Z,99.99
2019-05-03T05:42:07.674Z,99.99
2019-05-03T05:43:07.667Z,99.99
2019-05-03T05:44:07.661Z,99.99
2019-05-03T05:45:07.656Z,99.99
2019-05-03T05:46:07.647Z,99.99
2019-05-03T05:47:07.642Z,99.99
2019-05-03T05:48:07.640Z,99.99
2019-05-03T05:49:07.629Z,99.99
2019-05-03T05:50:07.660Z,99.99
2019-05-03T05:51:07.617Z,99.99
2019-05-03T05:52:07.614Z,99.99
2019-05-03T05:53:07.604Z,99.99
2019-05-03T05:54:07.593Z,99.99
2019-05-03T05:55:07.597Z,99.99
2019-05-03T05:56:07.585Z,99.99
2019-05-03T05:57:08.479Z,99.99
2019-05-03T05:58:08.323Z,99.99
2019-05-03T05:59:07.565Z,99.99
2019-05-03T06:00:07.579Z,99.99
2019-05-03T06:01:07.549Z,99.99
2019-05-03T06:02:07.544Z,99.99
2019-05-03T06:03:07.536Z,99.99
2019-05-03T06:04:09.950Z,99.99
2019-05-03T06:05:08.444Z,99.99
2019-05-03T06:06:07.566Z,99.99
2019-05-03T06:07:07.512Z,99.99
2019-05-03T06:08:07.505Z,99.99
2019-05-03T06:09:07.534Z,99.99
2019-05-03T06:10:07.490Z,99.99
2019-05-03T06:11:07.485Z,99.99
2019-05-03T06:12:07.475Z,99.99
2019-05-03T06:13:07.477Z,99.99
2019-05-03T06:14:07.461Z,99.99
2019-05-03T06:15:07.457Z,99.99
2019-05-03T06:16:07.452Z,99.99
2019-05-03T06:17:07.452Z,99.99
2019-05-03T06:18:07.436Z,99.99
2019-05-03T06:19:07.430Z,99.99
2019-05-03T06:20:07.476Z,99.99
2019-05-03T06:21:07.417Z,99.99
2019-05-03T06:22:07.410Z,99.99
2019-05-03T06:23:07.407Z,99.99
2019-05-03T06:24:07.400Z,99.99
2019-05-03T06:25:07.395Z,99.99
2019-05-03T06:26:07.386Z,99.99
2019-05-03T06:27:07.377Z,99.99
2019-05-03T06:28:17.713Z,99.99
2019-05-03T06:29:07.365Z,99.99
2019-05-03T06:30:07.358Z,99.99
2019-05-03T06:31:07.358Z,99.99
2019-05-03T06:32:07.348Z,99.99
2019-05-03T06:33:07.340Z,99.99
2019-05-03T06:34:07.338Z,99.99
2019-05-03T06:35:07.329Z,99.99
2019-05-03T06:36:07.332Z,99.99
2019-05-03T06:37:07.315Z,99.99
2019-05-03T06:38:07.308Z,99.99
2019-05-03T06:39:08.407Z,99.99
2019-05-03T06:40:07.299Z,99.99
2019-05-03T06:41:07.288Z,99.99
2019-05-03T06:42:10.091Z,99.99
2019-05-03T06:43:09.764Z,99.99
2019-05-03T06:44:07.274Z,99.99
2019-05-03T06:45:11.256Z,99.99
2019-05-03T06:46:07.258Z,99.99
2019-05-03T06:47:10.430Z,99.99
2019-05-03T06:48:07.266Z,99.99
2019-05-03T06:49:10.053Z,99.99
2019-05-03T06:50:07.238Z,99.99
2019-05-03T06:51:10.975Z,99.99
2019-05-03T06:52:07.221Z,99.99
2019-05-03T06:53:12.584Z,99.99
2019-05-03T06:54:07.222Z,99.99
2019-05-03T06:55:10.468Z,99.99
2019-05-03T06:56:07.199Z,99.99
2019-05-03T06:57:09.524Z,99.99
2019-05-03T06:58:07.222Z,99.99
2019-05-03T06:59:07.179Z,99.99
2019-05-03T07:00:07.173Z,99.99
2019-05-03T07:01:07.167Z,99.99
2019-05-03T07:02:07.160Z,99.99
2019-05-03T07:03:07.156Z,99.99
2019-05-03T07:04:07.284Z,99.99
2019-05-03T07:05:07.139Z,99.99
2019-05-03T07:06:07.135Z,99.99
2019-05-03T07:07:07.131Z,99.99
2019-05-03T07:08:07.123Z,99.99
2019-05-03T07:09:07.125Z,99.99
2019-05-03T07:10:07.113Z,99.99
2019-05-03T07:11:07.126Z,99.99
2019-05-03T07:12:07.097Z,99.99
2019-05-03T07:13:08.930Z,99.99
2019-05-03T07:14:07.087Z,99.99
2019-05-03T07:15:07.089Z,99.99
2019-05-03T07:16:07.077Z,99.99
2019-05-03T07:17:07.068Z,99.99
2019-05-03T07:18:07.065Z,99.99
2019-05-03T07:19:07.062Z,99.99
2019-05-03T07:20:07.052Z,99.99
2019-05-03T07:21:07.046Z,99.99
2019-05-03T07:22:07.038Z,97.99
2019-05-03T07:23:07.038Z,99.04
2019-05-03T07:24:07.030Z,99.51
2019-05-03T07:25:07.020Z,99.80
2019-05-03T07:26:07.037Z,98.08
2019-05-03T07:27:07.010Z,98.65
2019-05-03T07:28:07.007Z,99.32
2019-05-03T07:29:06.999Z,95.79
2019-05-03T07:30:06.992Z,95.70
2019-05-03T07:31:06.988Z,95.12
2019-05-03T07:32:06.979Z,94.56
2019-05-03T07:33:07.065Z,96.27
2019-05-03T07:34:06.971Z,95.03
2019-05-03T07:35:06.963Z,93.41
2019-05-03T07:36:06.958Z,93.51
2019-05-03T07:37:06.951Z,93.79
2019-05-03T07:38:06.945Z,91.41
2019-05-03T07:39:06.955Z,91.13
2019-05-03T07:40:06.933Z,90.45
2019-05-03T07:41:06.928Z,90.08
2019-05-03T07:42:06.918Z,90.17
2019-05-03T07:43:06.916Z,90.26
2019-05-03T07:44:06.909Z,91.13
2019-05-03T07:45:06.902Z,92.17
2019-05-03T07:46:06.895Z,91.31
2019-05-03T07:47:06.889Z,92.08
2019-05-03T07:48:06.892Z,92.79
2019-05-03T07:49:06.886Z,92.50
2019-05-03T07:50:06.991Z,93.17
2019-05-03T07:51:06.869Z,93.27
2019-05-03T07:52:06.872Z,93.08
2019-05-03T07:53:06.855Z,92.98
2019-05-03T07:54:06.850Z,90.59
2019-05-03T07:55:06.847Z,89.93
2019-05-03T07:56:06.836Z,88.21
2019-05-03T07:57:06.831Z,88.69
2019-05-03T07:58:06.827Z,87.16
2019-05-03T07:59:06.821Z,85.93
2019-05-03T08:00:06.815Z,86.98
2019-05-03T08:01:09.806Z,86.49
2019-05-03T08:02:06.804Z,85.35
2019-05-03T08:03:06.803Z,82.87
2019-05-03T08:04:06.793Z,83.06
2019-05-03T08:05:06.802Z,83.64
2019-05-03T08:06:06.936Z,83.25
2019-05-03T08:07:19.337Z,82.11
2019-05-03T08:08:07.061Z,80.01
2019-05-03T08:09:06.777Z,80.77
2019-05-03T08:10:07.060Z,80.49
2019-05-03T08:11:06.753Z,79.77
2019-05-03T08:12:06.749Z,79.28
2019-05-03T08:13:06.747Z,77.19
2019-05-03T08:14:06.737Z,76.71
2019-05-03T08:15:06.734Z,75.57
2019-05-03T08:16:06.729Z,75.28
2019-05-03T08:17:06.727Z,74.90
2019-05-03T08:18:06.817Z,75.28
2019-05-03T08:19:06.719Z,74.52
2019-05-03T08:20:06.708Z,74.42
2019-05-03T08:21:06.711Z,72.99
2019-05-03T08:22:06.696Z,72.42
2019-05-03T08:23:06.693Z,72.13
2019-05-03T08:24:06.696Z,72.23
2019-05-03T08:25:06.682Z,73.08
2019-05-03T08:26:06.683Z,70.92
2019-05-03T08:27:06.672Z,69.49
2019-05-03T08:28:06.673Z,69.68
2019-05-03T08:29:15.259Z,68.92
2019-05-03T08:30:06.661Z,68.73
2019-05-03T08:31:06.654Z,67.97
2019-05-03T08:32:06.646Z,67.68
2019-05-03T08:33:06.642Z,65.67
2019-05-03T08:34:06.641Z,63.86
2019-05-03T08:35:06.632Z,62.34
2019-05-03T08:36:06.630Z,62.34
2019-05-03T08:37:06.628Z,62.81
2019-05-03T08:38:06.621Z,63.29
2019-05-03T08:39:06.618Z,63.20
2019-05-03T08:40:06.900Z,63.03
2019-05-03T08:41:06.608Z,62.52
2019-05-03T08:42:06.600Z,62.84
2019-05-03T08:43:06.650Z,61.60
2019-05-03T08:44:06.682Z,60.14
2019-05-03T08:45:08.118Z,59.85
2019-05-03T08:46:06.606Z,60.74
2019-05-03T08:47:06.578Z,60.36
2019-05-03T08:48:06.618Z,59.59
2019-05-03T08:49:06.612Z,59.31
2019-05-03T08:50:06.567Z,58.93
2019-05-03T08:51:06.932Z,58.45
2019-05-03T08:52:06.558Z,58.45
2019-05-03T08:53:06.565Z,58.93
2019-05-03T08:54:06.549Z,58.00
2019-05-03T08:55:06.547Z,57.90
2019-05-03T08:56:06.542Z,57.14
2019-05-03T08:57:07.475Z,57.14
2019-05-03T08:58:07.485Z,56.47
2019-05-03T08:59:06.539Z,56.09
2019-05-03T09:00:06.549Z,55.61
2019-05-03T09:01:06.532Z,56.38
2019-05-03T09:02:14.059Z,56.28
2019-05-03T09:03:06.516Z,56.38
2019-05-03T09:04:06.514Z,56.18
2019-05-03T09:05:06.507Z,56.12
2019-05-03T09:06:06.518Z,55.45
2019-05-03T09:07:06.558Z,54.14
2019-05-03T09:08:06.503Z,53.02
2019-05-03T09:09:06.498Z,51.61
2019-05-03T09:10:06.493Z,51.03
2019-05-03T09:11:06.493Z,50.38
2019-05-03T09:12:06.488Z,50.00
2019-05-03T09:13:06.757Z,49.07
2019-05-03T09:14:06.477Z,47.73
2019-05-03T09:15:06.478Z,47.63
2019-05-03T09:16:06.509Z,47.34
2019-05-03T09:17:06.470Z,47.44
2019-05-03T09:18:06.470Z,47.99
2019-05-03T09:19:06.468Z,48.44
2019-05-03T09:20:06.467Z,49.11
2019-05-03T09:21:06.635Z,49.69
2019-05-03T09:22:06.461Z,49.65
2019-05-03T09:23:06.466Z,47.85
2019-05-03T09:24:06.463Z,46.60
2019-05-03T09:25:06.463Z,46.86
2019-05-03T09:26:06.486Z,46.48
2019-05-03T09:27:06.457Z,46.77
2019-05-03T09:28:06.450Z,46.86
2019-05-03T09:29:06.448Z,47.06
2019-05-03T09:30:06.451Z,47.71
2019-05-03T09:31:06.456Z,47.68
2019-05-03T09:32:06.438Z,49.21
2019-05-03T09:33:09.072Z,49.69
2019-05-03T09:34:08.287Z,49.86
2019-05-03T09:35:06.439Z,49.86
2019-05-03T09:36:06.436Z,49.88
2019-05-03T09:37:06.432Z,49.88
2019-05-03T09:38:06.433Z,49.79
2019-05-03T09:39:06.431Z,49.69
2019-05-03T09:40:06.443Z,49.21
2019-05-03T09:41:06.439Z,49.31
2019-05-03T09:42:06.425Z,49.11
2019-05-03T09:43:06.425Z,49.21
2019-05-03T09:44:06.461Z,49.11
2019-05-03T09:45:06.416Z,50.07
2019-05-03T09:46:06.432Z,50.17
2019-05-03T09:47:06.437Z,49.60
2019-05-03T09:48:06.411Z,49.88
2019-05-03T09:49:13.405Z,50.15
2019-05-03T09:50:06.407Z,49.66
2019-05-03T09:51:06.406Z,49.86
2019-05-03T09:52:08.405Z,49.86
2019-05-03T09:53:08.854Z,50.17
2019-05-03T09:54:06.406Z,49.88
2019-05-03T09:55:06.712Z,50.07
2019-05-03T09:56:06.393Z,49.86
2019-05-03T09:57:06.428Z,49.11
2019-05-03T09:58:06.399Z,48.71
2019-05-03T09:59:06.548Z,49.02
2019-05-03T10:00:06.385Z,49.02
2019-05-03T10:01:08.578Z,49.11
2019-05-03T10:02:06.380Z,50.26
2019-05-03T10:03:06.381Z,49.79
2019-05-03T10:04:06.410Z,49.50
2019-05-03T10:05:06.963Z,49.57
2019-05-03T10:06:06.611Z,50.15
2019-05-03T10:07:06.368Z,50.56
2019-05-03T10:08:06.369Z,50.56
2019-05-03T10:09:06.559Z,51.10
2019-05-03T10:10:06.361Z,50.36
2019-05-03T10:11:06.360Z,50.56
2019-05-03T10:12:06.378Z,50.17
2019-05-03T10:13:14.439Z,49.88
2019-05-03T10:14:06.376Z,49.31
2019-05-03T10:15:06.593Z,49.02
2019-05-03T10:16:06.383Z,48.16
2019-05-03T10:17:06.358Z,48.25
2019-05-03T10:18:10.839Z,48.16
2019-05-03T10:19:06.342Z,47.78
2019-05-03T10:20:06.359Z,48.25
2019-05-03T10:21:06.336Z,48.54
2019-05-03T10:22:06.341Z,48.16
2019-05-03T10:23:06.443Z,48.83
2019-05-03T10:24:06.756Z,48.07
2019-05-03T10:25:06.328Z,47.97
2019-05-03T10:26:06.339Z,48.07
2019-05-03T10:27:07.095Z,48.25
2019-05-03T10:28:06.325Z,47.30
2019-05-03T10:29:06.323Z,47.49
2019-05-03T10:30:12.473Z,48.25
2019-05-03T10:31:07.758Z,48.25
2019-05-03T10:32:06.317Z,47.97
2019-05-03T10:33:06.327Z,48.13
2019-05-03T10:34:06.402Z,48.13
2019-05-03T10:35:06.309Z,48.33
2019-05-03T10:36:06.308Z,48.49
2019-05-03T10:37:06.308Z,49.07
2019-05-03T10:38:06.300Z,49.16
2019-05-03T10:39:06.335Z,49.55
2019-05-03T10:40:08.111Z,50.12
2019-05-03T10:41:06.295Z,50.41
2019-05-03T10:42:06.369Z,50.41
2019-05-03T10:43:06.298Z,50.50
2019-05-03T10:44:06.288Z,51.17
2019-05-03T10:45:06.285Z,51.07
2019-05-03T10:46:06.280Z,50.41
2019-05-03T10:47:06.287Z,50.21
2019-05-03T10:48:06.308Z,50.31
2019-05-03T10:49:06.273Z,50.34
2019-05-03T10:50:06.274Z,50.12
2019-05-03T10:51:06.280Z,50.21
2019-05-03T10:52:06.275Z,50.12
2019-05-03T10:53:06.261Z,50.70
2019-05-03T10:54:06.268Z,50.89
2019-05-03T10:55:06.256Z,51.17
2019-05-03T10:56:06.254Z,51.75
2019-05-03T10:57:06.255Z,51.84
2019-05-03T10:58:06.247Z,52.03
2019-05-03T10:59:06.469Z,52.48
2019-05-03T11:00:06.243Z,52.77
2019-05-03T11:01:06.244Z,52.29
2019-05-03T11:02:06.235Z,52.87
2019-05-03T11:03:06.234Z,52.87
2019-05-03T11:04:06.229Z,52.77
2019-05-03T11:05:06.224Z,52.77
2019-05-03T11:06:06.221Z,52.29
2019-05-03T11:07:06.224Z,52.96
2019-05-03T11:08:06.217Z,52.58
2019-05-03T11:09:06.211Z,53.06
2019-05-03T11:10:06.221Z,53.44
2019-05-03T11:11:06.213Z,54.11
2019-05-03T11:12:06.209Z,53.82
2019-05-03T11:13:06.241Z,53.82
2019-05-03T11:14:06.226Z,54.30
2019-05-03T11:15:06.194Z,52.01
2019-05-03T11:16:06.192Z,51.15
2019-05-03T11:17:06.187Z,50.95
2019-05-03T11:18:06.183Z,51.24
2019-05-03T11:19:06.179Z,51.05
2019-05-03T11:20:06.176Z,50.95
2019-05-03T11:21:06.177Z,50.95
2019-05-03T11:22:06.180Z,50.67
2019-05-03T11:23:06.234Z,49.71
2019-05-03T11:24:06.162Z,48.95
2019-05-03T11:25:06.157Z,48.38
2019-05-03T11:26:06.157Z,48.47
2019-05-03T11:27:06.153Z,48.47
2019-05-03T11:28:06.152Z,48.57
2019-05-03T11:29:06.143Z,49.04
2019-05-03T11:30:06.140Z,48.83
2019-05-03T11:31:06.173Z,48.93
2019-05-03T11:32:09.637Z,49.49
2019-05-03T11:33:06.132Z,49.02
2019-05-03T11:34:06.295Z,48.93
2019-05-03T11:35:07.002Z,48.93
2019-05-03T11:36:06.225Z,49.49
2019-05-03T11:37:06.107Z,49.78
2019-05-03T11:38:06.134Z,49.98
2019-05-03T11:39:06.105Z,49.30
2019-05-03T11:40:06.110Z,49.59
2019-05-03T11:41:06.127Z,49.98
2019-05-03T11:42:06.095Z,49.78
2019-05-03T11:43:06.092Z,49.69
2019-05-03T11:44:06.141Z,49.78
2019-05-03T11:45:06.083Z,50.38
2019-05-03T11:46:06.082Z,49.43
2019-05-03T11:47:06.078Z,49.43
2019-05-03T11:48:06.075Z,48.47
2019-05-03T11:49:06.080Z,48.38
2019-05-03T11:51:39.182Z,48.28
2019-05-03T11:52:39.150Z,48.66
2019-05-03T11:54:35.733Z,47.61
2019-05-03T11:55:35.225Z,47.71
2019-05-03T11:57:27.872Z,47.61
2019-05-03T11:58:27.857Z,47.71
2019-05-03T12:00:22.272Z,48.02
2019-05-03T12:01:22.232Z,47.73
2019-05-03T12:03:16.670Z,47.16
2019-05-03T12:04:16.579Z,46.96
2019-05-03T12:06:10.961Z,46.30
2019-05-03T12:07:10.949Z,46.67
2019-05-03T12:09:05.664Z,46.77
2019-05-03T12:10:17.662Z,46.80
2019-05-03T12:11:59.735Z,46.98
2019-05-03T12:12:59.694Z,46.61
2019-05-03T12:14:54.846Z,46.98
2019-05-03T12:15:55.242Z,46.98
2019-05-03T12:17:54.233Z,46.41
2019-05-03T12:18:53.474Z,46.87
2019-05-03T12:20:43.659Z,46.96
2019-05-03T12:21:43.367Z,46.48
2019-05-03T12:23:38.014Z,46.41
2019-05-03T12:24:38.257Z,47.18
2019-05-03T12:26:41.581Z,45.74
2019-05-03T12:27:31.527Z,45.55
2019-05-03T12:29:26.067Z,45.17
2019-05-03T12:30:27.785Z,45.26
2019-05-03T12:32:20.306Z,46.03
2019-05-03T12:33:20.346Z,45.65
2019-05-03T12:35:15.331Z,45.34
2019-05-03T12:36:15.416Z,45.72
2019-05-03T12:38:09.003Z,46.48
2019-05-03T12:39:23.140Z,46.56
2019-05-03T12:41:02.369Z,47.32
2019-05-03T12:42:02.387Z,47.71
2019-05-03T12:43:56.824Z,47.61
2019-05-03T12:44:56.744Z,47.80
2019-05-03T12:46:51.171Z,47.82
2019-05-03T12:47:51.127Z,47.53
2019-05-03T12:49:45.554Z,46.96
2019-05-03T12:50:46.572Z,46.48
2019-05-03T12:52:49.781Z,45.55
2019-05-03T12:53:39.862Z,45.45
2019-05-03T12:55:35.609Z,45.26
2019-05-03T12:56:35.801Z,45.26
2019-05-03T12:58:28.624Z,44.52
2019-05-03T12:59:28.615Z,44.04
2019-05-03T13:01:25.100Z,43.18
2019-05-03T13:02:24.740Z,43.37
2019-05-03T13:04:17.370Z,43.63
2019-05-03T13:05:17.411Z,43.95
2019-05-03T13:07:11.737Z,45.26
2019-05-03T13:08:11.742Z,45.55
2019-05-03T13:10:06.134Z,46.20
2019-05-03T13:11:06.187Z,46.30
2019-05-03T13:13:00.551Z,46.77
2019-05-03T13:14:01.487Z,47.34
2019-05-03T13:15:55.067Z,47.34
2019-05-03T13:16:55.212Z,47.71
2019-05-03T13:18:49.337Z,47.80
2019-05-03T13:19:50.275Z,47.99
2019-05-03T13:21:44.999Z,47.89